Time;durP1;ratioP1;P1;durP2;ratioP2;P2;SDS_P1;SDS_P2;PMS_P1;PMS_P2;Temp;Humidity;BMP_temperature;BMP_pressure;BME280_temperature;BME280_humidity;BME280_pressure;Samples;Min_cycle;Max_cycle;Signal;HPM_P1;HPM_P2
2023/03/31 00:00:10;;;;;;;;;;;;;;;;;;5076312;28;19923;-65
2023/03/31 00:02:36;;;;;;;;;;;;;;;;;;5111802;28;20007;-65
2023/03/31 00:05:02;;;;;;;;;;;;;;;;;;5111448;28;20042;-64
2023/03/31 00:07:28;;;;;;;;;;;;;;;;;;5111629;28;19924;-65
2023/03/31 00:09:56;;;;;;;;;;;;;;;;;;5115369;28;19945;-65
2023/03/31 00:12:22;;;;;;;;;;;;;;;;;;5115834;28;20409;-65
2023/03/31 00:14:48;;;;;;;;;;;;;;;;;;5115866;28;19927;-65
2023/03/31 00:17:15;;;;;;;;;;;;;;;;;;5115434;28;20002;-65
2023/03/31 00:19:41;;;;;;;;;;;;;;;;;;5115379;28;19953;-65
2023/03/31 00:22:06;;;;;;;;;;;;;;;;;;5115190;28;20475;-65
2023/03/31 00:24:32;;;;;;;;;;;;;;;;;;5113971;28;20015;-65
2023/03/31 00:26:58;;;;;;;;;;;;;;;;;;5115307;28;20416;-65
2023/03/31 00:29:25;;;;;;;;;;;;;;;;;;5115072;28;19920;-65
2023/03/31 00:31:50;;;;;;;;;;;;;;;;;;5114745;28;19946;-64
2023/03/31 00:34:16;;;;;;;;;;;;;;;;;;5115003;28;20486;-65
2023/03/31 00:36:48;;;;;;;;;;;;;;;;;;5115019;28;19927;-64
2023/03/31 00:39:14;;;;;;;;;;;;;;;;;;5115288;28;19965;-65
2023/03/31 00:41:40;;;;;;;;;;;;;;;;;;5113793;28;20020;-65
2023/03/31 00:44:07;;;;;;;;;;;;;;;;;;5114887;28;19923;-64
2023/03/31 00:46:33;;;;;;;;;;;;;;;;;;5096362;28;20010;-65
2023/03/31 00:48:59;;;;;;;;;;;;;;;;;;5114808;28;20203;-65
2023/03/31 00:51:25;;;;;;;;;;;;;;;;;;5114716;28;20407;-65
2023/03/31 00:53:54;;;;;;;;;;;;;;;;;;5114657;28;20010;-65
2023/03/31 00:56:20;;;;;;;;;;;;;;;;;;5114859;28;19932;-64
2023/03/31 00:58:46;;;;;;;;;;;;;;;;;;5112834;28;19927;-64
2023/03/31 01:01:13;;;;;;;;;;;;;;;;;;5114479;28;19959;-65
2023/03/31 01:03:39;;;;;;;;;;;;;;;;;;5114551;28;19928;-64
2023/03/31 01:06:05;;;;;;;;;;;;;;;;;;5096015;28;19943;-65
2023/03/31 01:08:31;;;;;;;;;;;;;;;;;;5114272;28;20014;-64
2023/03/31 01:10:56;;;;;;;;;;;;;;;;;;5114367;28;20408;-64
2023/03/31 01:13:23;;;;;;;;;;;;;;;;;;5114385;28;19923;-64
2023/03/31 01:15:49;;;;;;;;;;;;;;;;;;5112851;28;19920;-64
2023/03/31 01:18:15;;;;;;;;;;;;;;;;;;5094969;28;19973;-64
2023/03/31 01:20:41;;;;;;;;;;;;;;;;;;5113601;28;20411;-65
2023/03/31 01:23:06;;;;;;;;;;;;;;;;;;5113990;28;19923;-65
2023/03/31 01:25:32;;;;;;;;;;;;;;;;;;5114148;28;19927;-65
2023/03/31 01:27:58;;;;;;;;;;;;;;;;;;5114093;28;19919;-64
2023/03/31 01:30:24;;;;;;;;;;;;;;;;;;5113780;28;19923;-64
2023/03/31 01:32:50;;;;;;;;;;;;;;;;;;5093934;28;19931;-64
2023/03/31 01:35:18;;;;;;;;;;;;;;;;;;5113886;28;19926;-64
2023/03/31 01:37:44;;;;;;;;;;;;;;;;;;5095447;28;19972;-65
2023/03/31 01:40:10;;;;;;;;;;;;;;;;;;5113768;28;20377;-64
2023/03/31 01:42:36;;;;;;;;;;;;;;;;;;5095671;28;19920;-64
2023/03/31 01:45:02;;;;;;;;;;;;;;;;;;5114104;28;19924;-63
2023/03/31 01:47:28;;;;;;;;;;;;;;;;;;5112128;28;19920;-64
2023/03/31 01:49:55;;;;;;;;;;;;;;;;;;5093714;28;19967;-64
2023/03/31 01:52:20;;;;;;;;;;;;;;;;;;5093842;28;19930;-64
2023/03/31 01:54:49;;;;;;;;;;;;;;;;;;5093290;28;20014;-63
2023/03/31 01:57:15;;;;;;;;;;;;;;;;;;5093401;28;20373;-64
2023/03/31 01:59:41;;;;;;;;;;;;;;;;;;5093215;28;19931;-64
2023/03/31 02:02:07;;;;;;;;;;;;;;;;;;5093272;28;20277;-65
2023/03/31 02:04:33;;;;;;;;;;;;;;;;;;5093358;28;19920;-62
2023/03/31 02:06:59;;;;;;;;;;;;;;;;;;5093368;28;19927;-61
2023/03/31 02:09:26;;;;;;;;;;;;;;;;;;5094024;28;19966;-62
2023/03/31 02:11:51;;;;;;;;;;;;;;;;;;5093381;28;19920;-62
2023/03/31 02:14:18;;;;;;;;;;;;;;;;;;5093260;28;19927;-62
2023/03/31 02:16:46;;;;;;;;;;;;;;;;;;5093073;28;19931;-62
2023/03/31 02:19:12;;;;;;;;;;;;;;;;;;5092884;28;19990;-62
2023/03/31 02:21:38;;;;;;;;;;;;;;;;;;5093443;28;19920;-62
2023/03/31 02:24:04;;;;;;;;;;;;;;;;;;5100702;28;20318;-62
2023/03/31 02:26:30;;;;;;;;;;;;;;;;;;5095414;28;20434;-61
2023/03/31 02:28:56;;;;;;;;;;;;;;;;;;5113672;28;20012;-61
2023/03/31 02:31:22;;;;;;;;;;;;;;;;;;5113549;28;19924;-62
2023/03/31 02:33:48;;;;;;;;;;;;;;;;;;5113535;28;19963;-62
2023/03/31 02:36:14;;;;;;;;;;;;;;;;;;5113474;28;20420;-62
2023/03/31 02:38:40;;;;;;;;;;;;;;;;;;5113319;28;19931;-62
2023/03/31 02:41:06;;;;;;;;;;;;;;;;;;5108302;28;20276;-62
2023/03/31 02:43:32;;;;;;;;;;;;;;;;;;5113062;28;19931;-62
2023/03/31 02:45:58;;;;;;;;;;;;;;;;;;5112856;28;19928;-62
2023/03/31 02:48:24;;;;;;;;;;;;;;;;;;5095000;28;19920;-63
2023/03/31 02:50:50;;;;;;;;;;;;;;;;;;5113474;28;19974;-61
2023/03/31 02:53:16;;;;;;;;;;;;;;;;;;5113173;28;20369;-61
2023/03/31 02:55:42;;;;;;;;;;;;;;;;;;5113100;28;19930;-62
2023/03/31 02:58:11;;;;;;;;;;;;;;;;;;5112037;28;20422;-62
2023/03/31 03:00:37;;;;;;;;;;;;;;;;;;5112676;28;19998;-62
2023/03/31 03:03:03;;;;;;;;;;;;;;;;;;5112843;28;20014;-61
2023/03/31 03:05:33;;;;;;;;;;;;;;;;;;5113106;28;19920;-61
2023/03/31 03:07:59;;;;;;;;;;;;;;;;;;5094638;28;20634;-61
2023/03/31 03:10:25;;;;;;;;;;;;;;;;;;5112847;28;19920;-61
2023/03/31 03:12:51;;;;;;;;;;;;;;;;;;5113036;28;19919;-61
2023/03/31 03:15:17;;;;;;;;;;;;;;;;;;5097689;28;20387;-61
2023/03/31 03:17:42;;;;;;;;;;;;;;;;;;5092399;28;20030;-62
2023/03/31 03:20:08;;;;;;;;;;;;;;;;;;5092136;28;19999;-62
2023/03/31 03:22:34;;;;;;;;;;;;;;;;;;5092193;28;19926;-62
2023/03/31 03:25:00;;;;;;;;;;;;;;;;;;5092699;28;19920;-61
2023/03/31 03:27:27;;;;;;;;;;;;;;;;;;5092579;28;19924;-61
2023/03/31 03:29:53;;;;;;;;;;;;;;;;;;5092593;28;19963;-61
2023/03/31 03:32:19;;;;;;;;;;;;;;;;;;5092875;28;20418;-61
2023/03/31 03:34:44;;;;;;;;;;;;;;;;;;5092528;28;19924;-61
2023/03/31 03:37:10;;;;;;;;;;;;;;;;;;5092641;28;19950;-61
2023/03/31 03:39:36;;;;;;;;;;;;;;;;;;5092614;28;19924;-62
2023/03/31 03:42:02;;;;;;;;;;;;;;;;;;5057581;28;19927;-61
2023/03/31 03:44:28;;;;;;;;;;;;;;;;;;5095970;28;20030;-61
2023/03/31 03:46:54;;;;;;;;;;;;;;;;;;5101862;28;19977;-61
2023/03/31 03:49:20;;;;;;;;;;;;;;;;;;5116193;28;20280;-61
2023/03/31 03:51:46;;;;;;;;;;;;;;;;;;5116294;28;19920;-61
2023/03/31 03:54:12;;;;;;;;;;;;;;;;;;5116201;28;19989;-63
2023/03/31 03:56:38;;;;;;;;;;;;;;;;;;5097938;28;19927;-62
2023/03/31 03:59:04;;;;;;;;;;;;;;;;;;5116351;28;20284;-61
2023/03/31 04:01:30;;;;;;;;;;;;;;;;;;5115311;28;20280;-62
2023/03/31 04:03:56;;;;;;;;;;;;;;;;;;5115213;28;20583;-61
2023/03/31 04:06:22;;;;;;;;;;;;;;;;;;5116094;28;19962;-62
2023/03/31 04:08:48;;;;;;;;;;;;;;;;;;5097592;28;20265;-61
2023/03/31 04:11:14;;;;;;;;;;;;;;;;;;5115951;28;20486;-64
2023/03/31 04:13:40;;;;;;;;;;;;;;;;;;5115738;28;19928;-64
2023/03/31 04:16:06;;;;;;;;;;;;;;;;;;5115935;28;19920;-64
2023/03/31 04:18:32;;;;;;;;;;;;;;;;;;5115616;28;19924;-63
2023/03/31 04:21:04;;;;;;;;;;;;;;;;;;5095930;28;19924;-63
2023/03/31 04:23:29;;;;;;;;;;;;;;;;;;5115879;28;19935;-63
2023/03/31 04:25:55;;;;;;;;;;;;;;;;;;5115378;28;19930;-64
2023/03/31 04:28:21;;;;;;;;;;;;;;;;;;5115578;28;19920;-64
2023/03/31 04:30:47;;;;;;;;;;;;;;;;;;5115564;28;19984;-64
2023/03/31 04:33:14;;;;;;;;;;;;;;;;;;5136387;22;20334;-61
2023/03/31 04:35:51;;;;;;;;;;;;;;;;;;5074019;28;19935;-61
2023/03/31 04:38:20;;;;;;;;;;;;;;;;;;5075889;28;19919;-62
2023/03/31 04:40:46;;;;;;;;;;;;;;;;;;5094926;28;20758;-62
2023/03/31 04:43:12;;;;;;;;;;;;;;;;;;5095002;28;20020;-62
2023/03/31 04:45:38;;;;;;;;;;;;;;;;;;5094751;28;19920;-62
2023/03/31 04:48:04;;;;;;;;;;;;;;;;;;5094969;28;19920;-62
2023/03/31 04:50:30;;;;;;;;;;;;;;;;;;5094999;28;19997;-62
2023/03/31 04:52:56;;;;;;;;;;;;;;;;;;5094584;28;19920;-62
2023/03/31 04:55:21;;;;;;;;;;;;;;;;;;5075640;28;19920;-62
2023/03/31 04:57:47;;;;;;;;;;;;;;;;;;5094862;28;20278;-62
2023/03/31 05:00:14;;;;;;;;;;;;;;;;;;5094857;28;19982;-62
2023/03/31 05:02:40;;;;;;;;;;;;;;;;;;5076295;28;20010;-62
2023/03/31 05:05:06;;;;;;;;;;;;;;;;;;5094851;28;19999;-62
2023/03/31 05:07:32;;;;;;;;;;;;;;;;;;5094396;28;19924;-62
2023/03/31 05:09:58;;;;;;;;;;;;;;;;;;5093687;28;19971;-62
2023/03/31 05:12:24;;;;;;;;;;;;;;;;;;5094646;28;20015;-62
2023/03/31 05:14:50;;;;;;;;;;;;;;;;;;5076321;28;19928;-62
2023/03/31 05:17:16;;;;;;;;;;;;;;;;;;5094236;28;19931;-62
2023/03/31 05:19:42;;;;;;;;;;;;;;;;;;5094205;28;19949;-62
2023/03/31 05:22:08;;;;;;;;;;;;;;;;;;5094098;28;20026;-62
2023/03/31 05:24:34;;;;;;;;;;;;;;;;;;5094416;28;19924;-62
2023/03/31 05:27:00;;;;;;;;;;;;;;;;;;5093108;28;19924;-62
2023/03/31 05:29:26;;;;;;;;;;;;;;;;;;5094120;28;20584;-62
2023/03/31 05:31:52;;;;;;;;;;;;;;;;;;5086563;28;19924;-61
2023/03/31 05:34:18;;;;;;;;;;;;;;;;;;5055479;28;19931;-61
2023/03/31 05:36:44;;;;;;;;;;;;;;;;;;5055469;28;20316;-62
2023/03/31 05:39:10;;;;;;;;;;;;;;;;;;5073604;28;20035;-61
2023/03/31 05:41:36;;;;;;;;;;;;;;;;;;5074059;28;20007;-61
2023/03/31 05:44:02;;;;;;;;;;;;;;;;;;5092205;28;19924;-61
2023/03/31 05:46:28;;;;;;;;;;;;;;;;;;5092907;28;20227;-61
2023/03/31 05:48:55;;;;;;;;;;;;;;;;;;5088812;28;19935;-61
2023/03/31 05:51:21;;;;;;;;;;;;;;;;;;5093658;28;20277;-61
2023/03/31 05:53:47;;;;;;;;;;;;;;;;;;5093624;28;19920;-61
2023/03/31 05:56:13;;;;;;;;;;;;;;;;;;5093747;28;20353;-61
2023/03/31 05:58:39;;;;;;;;;;;;;;;;;;5093377;28;19924;-61
2023/03/31 06:01:05;;;;;;;;;;;;;;;;;;5092668;28;20262;-62
2023/03/31 06:03:31;;;;;;;;;;;;;;;;;;5093399;28;19927;-62
2023/03/31 06:05:57;;;;;;;;;;;;;;;;;;5074755;28;20347;-62
2023/03/31 06:08:23;;;;;;;;;;;;;;;;;;5093384;28;19974;-62
2023/03/31 06:10:49;;;;;;;;;;;;;;;;;;5093211;28;19920;-62
2023/03/31 06:13:15;;;;;;;;;;;;;;;;;;5074996;28;19969;-60
2023/03/31 06:15:41;;;;;;;;;;;;;;;;;;5093397;28;19920;-61
2023/03/31 06:18:09;;;;;;;;;;;;;;;;;;5073613;28;19920;-61
2023/03/31 06:20:35;;;;;;;;;;;;;;;;;;5074479;28;19924;-61
2023/03/31 06:23:01;;;;;;;;;;;;;;;;;;5074457;28;19943;-61
2023/03/31 06:25:27;;;;;;;;;;;;;;;;;;5074859;28;19920;-61
2023/03/31 06:27:52;;;;;;;;;;;;;;;;;;5092945;28;19924;-61
2023/03/31 06:30:18;;;;;;;;;;;;;;;;;;5092771;28;19960;-61
2023/03/31 06:32:44;;;;;;;;;;;;;;;;;;5091757;28;19926;-61
2023/03/31 06:35:10;;;;;;;;;;;;;;;;;;5038792;28;20051;-61
2023/03/31 06:37:36;;;;;;;;;;;;;;;;;;5072293;28;19929;-61
2023/03/31 06:40:03;;;;;;;;;;;;;;;;;;5091578;28;19924;-61
2023/03/31 06:42:29;;;;;;;;;;;;;;;;;;5092444;28;19931;-61
2023/03/31 06:44:55;;;;;;;;;;;;;;;;;;5092416;28;20409;-61
2023/03/31 06:47:21;;;;;;;;;;;;;;;;;;5092568;28;20010;-62
2023/03/31 06:49:47;;;;;;;;;;;;;;;;;;5091513;28;19920;-61
2023/03/31 06:52:13;;;;;;;;;;;;;;;;;;5092440;28;20035;-61
2023/03/31 06:54:39;;;;;;;;;;;;;;;;;;5074007;28;19927;-61
2023/03/31 06:57:05;;;;;;;;;;;;;;;;;;5092707;28;20301;-61
2023/03/31 06:59:31;;;;;;;;;;;;;;;;;;5092310;28;19955;-61
2023/03/31 07:01:57;;;;;;;;;;;;;;;;;;5092010;28;19939;-61
2023/03/31 07:04:23;;;;;;;;;;;;;;;;;;5092149;28;19920;-61
2023/03/31 07:06:49;;;;;;;;;;;;;;;;;;5090907;28;19920;-61
2023/03/31 07:09:15;;;;;;;;;;;;;;;;;;5073924;28;19924;-61
2023/03/31 07:11:40;;;;;;;;;;;;;;;;;;5092391;28;19943;-61
2023/03/31 07:14:06;;;;;;;;;;;;;;;;;;5092071;28;20408;-61
2023/03/31 07:16:32;;;;;;;;;;;;;;;;;;5091356;28;19920;-61
2023/03/31 07:18:58;;;;;;;;;;;;;;;;;;5057044;28;19920;-61
2023/03/31 07:21:24;;;;;;;;;;;;;;;;;;5092228;28;19935;-61
2023/03/31 07:23:50;;;;;;;;;;;;;;;;;;5091187;28;20289;-62
2023/03/31 07:26:16;;;;;;;;;;;;;;;;;;5091935;28;20464;-62
2023/03/31 07:28:42;;;;;;;;;;;;;;;;;;5092016;28;19927;-61
2023/03/31 07:31:08;;;;;;;;;;;;;;;;;;5091967;28;19928;-62
2023/03/31 07:33:33;;;;;;;;;;;;;;;;;;5091850;28;20011;-62
2023/03/31 07:35:59;;;;;;;;;;;;;;;;;;5092040;28;19924;-62
2023/03/31 07:38:25;;;;;;;;;;;;;;;;;;5091996;28;20383;-62
2023/03/31 07:40:51;;;;;;;;;;;;;;;;;;5087874;28;19936;-62
2023/03/31 07:43:17;;;;;;;;;;;;;;;;;;5070054;28;20290;-62
2023/03/31 07:45:43;;;;;;;;;;;;;;;;;;5077088;28;19975;-62
2023/03/31 07:48:09;;;;;;;;;;;;;;;;;;5091132;28;19920;-62
2023/03/31 07:50:35;;;;;;;;;;;;;;;;;;5091608;28;19931;-62
2023/03/31 07:53:01;;;;;;;;;;;;;;;;;;5073508;28;19981;-62
2023/03/31 07:55:27;;;;;;;;;;;;;;;;;;5087264;28;20530;-62
2023/03/31 07:57:53;;;;;;;;;;;;;;;;;;5086608;28;19920;-62
2023/03/31 08:00:18;;;;;;;;;;;;;;;;;;5075373;28;20005;-62
2023/03/31 08:02:44;;;;;;;;;;;;;;;;;;5072815;28;19920;-62
2023/03/31 08:05:10;;;;;;;;;;;;;;;;;;5091521;28;19924;-62
2023/03/31 08:07:36;;;;;;;;;;;;;;;;;;5091480;28;19927;-62
2023/03/31 08:10:02;;;;;;;;;;;;;;;;;;5073008;28;19924;-62
2023/03/31 08:12:28;;;;;;;;;;;;;;;;;;5091246;28;19943;-62
2023/03/31 08:14:54;;;;;;;;;;;;;;;;;;5088546;28;19928;-61
2023/03/31 08:17:20;;;;;;;;;;;;;;;;;;5084045;28;19924;-62
2023/03/31 08:19:46;;;;;;;;;;;;;;;;;;5073023;28;19924;-62
2023/03/31 08:22:12;;;;;;;;;;;;;;;;;;5071172;28;19931;-62
2023/03/31 08:24:38;;;;;;;;;;;;;;;;;;5052796;28;19921;-62
2023/03/31 08:27:04;;;;;;;;;;;;;;;;;;5063546;28;19927;-62
2023/03/31 08:29:30;;;;;;;;;;;;;;;;;;5093493;28;19934;-62
2023/03/31 08:31:56;;;;;;;;;;;;;;;;;;5094115;28;19920;-62
2023/03/31 08:34:21;;;;;;;;;;;;;;;;;;5094952;28;20248;-62
2023/03/31 08:36:47;;;;;;;;;;;;;;;;;;5094845;28;20448;-61
2023/03/31 08:39:13;;;;;;;;;;;;;;;;;;5094590;28;19969;-62
2023/03/31 08:41:40;;;;;;;;;;;;;;;;;;5094795;28;19924;-62
2023/03/31 08:44:06;;;;;;;;;;;;;;;;;;5076405;28;20009;-61
2023/03/31 08:46:34;;;;;;;;;;;;;;;;;;5076279;28;19924;-62
2023/03/31 08:49:01;;;;;;;;;;;;;;;;;;5074398;28;19967;-61
2023/03/31 08:51:27;;;;;;;;;;;;;;;;;;5074412;28;19924;-62
2023/03/31 08:53:53;;;;;;;;;;;;;;;;;;5056456;28;20005;-61
2023/03/31 08:56:19;;;;;;;;;;;;;;;;;;5078754;28;19920;-61
2023/03/31 08:58:45;;;;;;;;;;;;;;;;;;5094657;28;19974;-61
2023/03/31 09:01:12;;;;;;;;;;;;;;;;;;5076029;28;19932;-61
2023/03/31 09:03:38;;;;;;;;;;;;;;;;;;5075923;28;20424;-61
2023/03/31 09:06:04;;;;;;;;;;;;;;;;;;5088007;28;19920;-61
2023/03/31 09:08:32;;;;;;;;;;;;;;;;;;5093453;28;20266;-61
2023/03/31 09:10:58;;;;;;;;;;;;;;;;;;5094318;28;19923;-61
2023/03/31 09:13:24;;;;;;;;;;;;;;;;;;5094195;28;20288;-61
2023/03/31 09:15:50;;;;;;;;;;;;;;;;;;5075164;28;19976;-61
2023/03/31 09:18:16;;;;;;;;;;;;;;;;;;5094068;28;20003;-61
2023/03/31 09:20:41;;;;;;;;;;;;;;;;;;5089361;28;19928;-61
2023/03/31 09:23:07;;;;;;;;;;;;;;;;;;5079804;28;20275;-61
2023/03/31 09:25:33;;;;;;;;;;;;;;;;;;5088455;28;19926;-61
2023/03/31 09:27:59;;;;;;;;;;;;;;;;;;5072698;28;20385;-61
2023/03/31 09:30:25;;;;;;;;;;;;;;;;;;5073354;28;19924;-61
2023/03/31 09:32:51;;;;;;;;;;;;;;;;;;5073478;28;19946;-61
2023/03/31 09:35:17;;;;;;;;;;;;;;;;;;5073337;28;19920;-61
2023/03/31 09:37:43;;;;;;;;;;;;;;;;;;5066472;28;19932;-61
2023/03/31 09:40:10;;;;;;;;;;;;;;;;;;5067036;28;19929;-62
2023/03/31 09:42:36;;;;;;;;;;;;;;;;;;5073193;28;20011;-62
2023/03/31 09:45:02;;;;;;;;;;;;;;;;;;5071033;28;20039;-62
2023/03/31 09:47:28;;;;;;;;;;;;;;;;;;5069987;28;19924;-62
2023/03/31 09:49:54;;;;;;;;;;;;;;;;;;5065731;28;19921;-62
2023/03/31 09:52:20;;;;;;;;;;;;;;;;;;5068387;28;19936;-62
2023/03/31 09:54:46;;;;;;;;;;;;;;;;;;5049689;28;19925;-62
2023/03/31 09:57:11;;;;;;;;;;;;;;;;;;5063074;28;20296;-62
2023/03/31 09:59:37;;;;;;;;;;;;;;;;;;5063582;28;19921;-62
2023/03/31 10:02:03;;;;;;;;;;;;;;;;;;5062275;28;19931;-62
2023/03/31 10:04:29;;;;;;;;;;;;;;;;;;5047146;28;19925;-61
2023/03/31 10:06:55;;;;;;;;;;;;;;;;;;5064408;28;19974;-61
2023/03/31 10:09:22;;;;;;;;;;;;;;;;;;5067216;28;19994;-61
2023/03/31 10:11:48;;;;;;;;;;;;;;;;;;5067340;28;19920;-62
2023/03/31 10:14:13;;;;;;;;;;;;;;;;;;5069908;28;19998;-60
2023/03/31 10:16:40;;;;;;;;;;;;;;;;;;5059752;28;19931;-61
2023/03/31 10:19:05;;;;;;;;;;;;;;;;;;5063877;28;20055;-61
2023/03/31 10:21:31;;;;;;;;;;;;;;;;;;5072671;28;20019;-61
2023/03/31 10:23:57;;;;;;;;;;;;;;;;;;5054366;28;19925;-61
2023/03/31 10:26:23;;;;;;;;;;;;;;;;;;5072394;28;19921;-61
2023/03/31 10:28:51;;;;;;;;;;;;;;;;;;5072354;28;19925;-61
2023/03/31 10:31:17;;;;;;;;;;;;;;;;;;5053347;28;20028;-61
2023/03/31 10:33:43;;;;;;;;;;;;;;;;;;5076908;28;20317;-61
2023/03/31 10:36:09;;;;;;;;;;;;;;;;;;5093038;28;19928;-61
2023/03/31 10:38:35;;;;;;;;;;;;;;;;;;5092618;28;19919;-61
2023/03/31 10:41:03;;;;;;;;;;;;;;;;;;5092177;28;21262;-61
2023/03/31 10:43:29;;;;;;;;;;;;;;;;;;5092938;28;20003;-61
2023/03/31 10:45:55;;;;;;;;;;;;;;;;;;5073611;28;20657;-61
2023/03/31 10:48:21;;;;;;;;;;;;;;;;;;5074251;28;20358;-60
2023/03/31 10:50:47;;;;;;;;;;;;;;;;;;5092640;28;19920;-61
2023/03/31 10:53:13;;;;;;;;;;;;;;;;;;5092788;28;20316;-61
2023/03/31 10:55:38;;;;;;;;;;;;;;;;;;5092266;28;19932;-61
2023/03/31 10:58:04;;;;;;;;;;;;;;;;;;5074549;28;19967;-61
2023/03/31 11:00:30;;;;;;;;;;;;;;;;;;5093010;28;20023;-61
2023/03/31 11:02:56;;;;;;;;;;;;;;;;;;5092814;28;19930;-61
2023/03/31 11:05:24;;;;;;;;;;;;;;;;;;5082066;28;19924;-61
2023/03/31 11:07:50;;;;;;;;;;;;;;;;;;5092765;28;19924;-61
2023/03/31 11:10:15;;;;;;;;;;;;;;;;;;5092789;28;19931;-61
2023/03/31 11:12:43;;;;;;;;;;;;;;;;;;5092678;28;19924;-60
2023/03/31 11:15:09;;;;;;;;;;;;;;;;;;5092922;28;19959;-60
2023/03/31 11:17:35;;;;;;;;;;;;;;;;;;5092789;28;20431;-61
2023/03/31 11:20:01;;;;;;;;;;;;;;;;;;5091682;28;19924;-62
2023/03/31 11:22:27;;;;;;;;;;;;;;;;;;5092605;28;19920;-62
2023/03/31 11:24:52;;;;;;;;;;;;;;;;;;5092370;28;20284;-62
2023/03/31 11:27:18;;;;;;;;;;;;;;;;;;5074519;28;19924;-62
2023/03/31 11:29:44;;;;;;;;;;;;;;;;;;5092250;28;19951;-62
2023/03/31 11:32:11;;;;;;;;;;;;;;;;;;5092445;28;19924;-62
2023/03/31 11:34:37;;;;;;;;;;;;;;;;;;5092194;28;20247;-62
2023/03/31 11:37:04;;;;;;;;;;;;;;;;;;5091777;28;19920;-62
2023/03/31 11:39:29;;;;;;;;;;;;;;;;;;5092077;28;20452;-62
2023/03/31 11:41:55;;;;;;;;;;;;;;;;;;5092554;28;19926;-62
2023/03/31 11:44:21;;;;;;;;;;;;;;;;;;5092236;28;19920;-62
2023/03/31 11:46:47;;;;;;;;;;;;;;;;;;5092105;28;20427;-61
2023/03/31 11:49:13;;;;;;;;;;;;;;;;;;5074130;28;19932;-61
2023/03/31 11:51:39;;;;;;;;;;;;;;;;;;5092326;28;19924;-61
2023/03/31 11:54:10;;;;;;;;;;;;;;;;;;5056516;28;20385;-61
2023/03/31 11:56:36;;;;;;;;;;;;;;;;;;5092471;28;19920;-61
2023/03/31 11:59:03;;;;;;;;;;;;;;;;;;5092116;28;20473;-61
2023/03/31 12:01:31;;;;;;;;;;;;;;;;;;5092151;28;20404;-61
2023/03/31 12:03:56;;;;;;;;;;;;;;;;;;5091723;28;20308;-61
2023/03/31 12:06:22;;;;;;;;;;;;;;;;;;5078333;28;19927;-62
2023/03/31 12:08:48;;;;;;;;;;;;;;;;;;5096303;28;19924;-62
2023/03/31 12:11:14;;;;;;;;;;;;;;;;;;5077960;28;19923;-62
2023/03/31 12:13:40;;;;;;;;;;;;;;;;;;5096156;28;19951;-62
2023/03/31 12:16:06;;;;;;;;;;;;;;;;;;5077614;28;20369;-62
2023/03/31 12:18:32;;;;;;;;;;;;;;;;;;5095999;28;19932;-62
2023/03/31 12:20:58;;;;;;;;;;;;;;;;;;5094898;28;19955;-62
2023/03/31 12:23:24;;;;;;;;;;;;;;;;;;5096053;28;20350;-62
2023/03/31 12:25:50;;;;;;;;;;;;;;;;;;5095694;28;19928;-62
2023/03/31 12:28:16;;;;;;;;;;;;;;;;;;5077535;28;19927;-62
2023/03/31 12:30:43;;;;;;;;;;;;;;;;;;5095598;28;19920;-62
2023/03/31 12:33:08;;;;;;;;;;;;;;;;;;5095664;28;20462;-62
2023/03/31 12:35:34;;;;;;;;;;;;;;;;;;5095449;28;20003;-62
2023/03/31 12:38:00;;;;;;;;;;;;;;;;;;5075257;28;19981;-62
2023/03/31 12:40:26;;;;;;;;;;;;;;;;;;5075366;28;19931;-62
2023/03/31 12:42:52;;;;;;;;;;;;;;;;;;5057494;28;19920;-62
2023/03/31 12:45:18;;;;;;;;;;;;;;;;;;5074933;28;20366;-62
2023/03/31 12:47:44;;;;;;;;;;;;;;;;;;5075193;28;19927;-62
2023/03/31 12:50:10;;;;;;;;;;;;;;;;;;5084505;28;19928;-62
2023/03/31 12:52:36;;;;;;;;;;;;;;;;;;5095553;28;20255;-62
2023/03/31 12:55:02;;;;;;;;;;;;;;;;;;5095524;28;19974;-62
2023/03/31 12:57:28;;;;;;;;;;;;;;;;;;5095233;28;19923;-62
2023/03/31 12:59:54;;;;;;;;;;;;;;;;;;5094983;28;19924;-62
2023/03/31 13:02:19;;;;;;;;;;;;;;;;;;5095067;28;20384;-62
2023/03/31 13:04:45;;;;;;;;;;;;;;;;;;5076773;28;19920;-62
2023/03/31 13:07:11;;;;;;;;;;;;;;;;;;5077736;28;20273;-61
2023/03/31 13:09:37;;;;;;;;;;;;;;;;;;5020297;28;19925;-61
2023/03/31 13:12:03;;;;;;;;;;;;;;;;;;5054591;28;19971;-61
2023/03/31 13:14:29;;;;;;;;;;;;;;;;;;5054676;28;19921;-61
2023/03/31 13:16:55;;;;;;;;;;;;;;;;;;5054482;28;19920;-62
2023/03/31 13:19:21;;;;;;;;;;;;;;;;;;5054322;28;19974;-62
2023/03/31 13:21:47;;;;;;;;;;;;;;;;;;5054751;28;20283;-63
2023/03/31 13:24:13;;;;;;;;;;;;;;;;;;5058918;28;19967;-62
2023/03/31 13:26:39;;;;;;;;;;;;;;;;;;5054472;28;20026;-62
2023/03/31 13:29:05;;;;;;;;;;;;;;;;;;5054431;28;19928;-62
2023/03/31 13:31:31;;;;;;;;;;;;;;;;;;5036097;28;20370;-62
2023/03/31 13:33:57;;;;;;;;;;;;;;;;;;5054064;28;19929;-63
2023/03/31 13:36:23;;;;;;;;;;;;;;;;;;5036176;28;20616;-62
2023/03/31 13:38:48;;;;;;;;;;;;;;;;;;5061279;28;19931;-62
2023/03/31 13:41:14;;;;;;;;;;;;;;;;;;5060171;28;19921;-62
2023/03/31 13:43:41;;;;;;;;;;;;;;;;;;5035973;28;20263;-62
2023/03/31 13:46:07;;;;;;;;;;;;;;;;;;5053858;28;20468;-62
2023/03/31 13:48:33;;;;;;;;;;;;;;;;;;5054064;28;19920;-62
2023/03/31 13:50:59;;;;;;;;;;;;;;;;;;5035859;28;19932;-62
2023/03/31 13:53:25;;;;;;;;;;;;;;;;;;5053909;28;19925;-62
2023/03/31 13:55:51;;;;;;;;;;;;;;;;;;5052540;28;19920;-62
2023/03/31 13:58:17;;;;;;;;;;;;;;;;;;5055701;28;20313;-62
2023/03/31 14:00:43;;;;;;;;;;;;;;;;;;5073628;28;19925;-62
2023/03/31 14:03:09;;;;;;;;;;;;;;;;;;5073409;28;19978;-62
2023/03/31 14:05:35;;;;;;;;;;;;;;;;;;5055489;28;19920;-62
2023/03/31 14:08:01;;;;;;;;;;;;;;;;;;5073642;28;19928;-62
2023/03/31 14:10:26;;;;;;;;;;;;;;;;;;5072555;28;19925;-61
2023/03/31 14:12:52;;;;;;;;;;;;;;;;;;5073201;28;19971;-61
2023/03/31 14:15:18;;;;;;;;;;;;;;;;;;5073613;28;19925;-61
2023/03/31 14:17:44;;;;;;;;;;;;;;;;;;5055112;28;20439;-61
2023/03/31 14:20:10;;;;;;;;;;;;;;;;;;5073409;28;19939;-61
2023/03/31 14:22:36;;;;;;;;;;;;;;;;;;5073068;28;20065;-62
2023/03/31 14:25:02;;;;;;;;;;;;;;;;;;5073223;28;19990;-61
2023/03/31 14:27:28;;;;;;;;;;;;;;;;;;5071491;28;20021;-61
2023/03/31 14:29:54;;;;;;;;;;;;;;;;;;5073403;28;20416;-61
2023/03/31 14:32:21;;;;;;;;;;;;;;;;;;5072691;28;20382;-61
2023/03/31 14:34:47;;;;;;;;;;;;;;;;;;5086532;28;19924;-62
2023/03/31 14:37:13;;;;;;;;;;;;;;;;;;5093507;28;19924;-62
2023/03/31 14:39:39;;;;;;;;;;;;;;;;;;5093069;28;20012;-62
2023/03/31 14:42:05;;;;;;;;;;;;;;;;;;5093061;28;19920;-62
2023/03/31 14:44:31;;;;;;;;;;;;;;;;;;5091399;28;19928;-62
2023/03/31 14:46:57;;;;;;;;;;;;;;;;;;5092808;28;20400;-62
2023/03/31 14:49:23;;;;;;;;;;;;;;;;;;5093227;28;19927;-62
2023/03/31 14:51:49;;;;;;;;;;;;;;;;;;5075134;28;20006;-62
2023/03/31 14:54:15;;;;;;;;;;;;;;;;;;5093150;28;19924;-61
2023/03/31 14:56:41;;;;;;;;;;;;;;;;;;5092964;28;19924;-61
2023/03/31 14:59:07;;;;;;;;;;;;;;;;;;5092845;28;20331;-62
2023/03/31 15:01:36;;;;;;;;;;;;;;;;;;5091962;28;19920;-62
2023/03/31 15:04:02;;;;;;;;;;;;;;;;;;5093001;28;19966;-62
2023/03/31 15:06:31;;;;;;;;;;;;;;;;;;5092916;28;19920;-62
2023/03/31 15:08:57;;;;;;;;;;;;;;;;;;5092653;28;19924;-62
2023/03/31 15:11:23;;;;;;;;;;;;;;;;;;5093133;28;19927;-63
2023/03/31 15:13:49;;;;;;;;;;;;;;;;;;5092717;28;19920;-63
2023/03/31 15:16:15;;;;;;;;;;;;;;;;;;5087848;28;19935;-62
2023/03/31 15:18:43;;;;;;;;;;;;;;;;;;5085106;28;19935;-63
2023/03/31 15:21:09;;;;;;;;;;;;;;;;;;5092827;28;19920;-62
2023/03/31 15:23:35;;;;;;;;;;;;;;;;;;5092423;28;20378;-62
2023/03/31 15:26:01;;;;;;;;;;;;;;;;;;5074402;28;19928;-63
2023/03/31 15:28:26;;;;;;;;;;;;;;;;;;5092278;28;20016;-62
2023/03/31 15:30:52;;;;;;;;;;;;;;;;;;5080737;28;19924;-62
2023/03/31 15:33:18;;;;;;;;;;;;;;;;;;5059068;28;19935;-63
2023/03/31 15:35:45;;;;;;;;;;;;;;;;;;5091919;28;19959;-61
2023/03/31 15:38:10;;;;;;;;;;;;;;;;;;5072703;28;19959;-61
2023/03/31 15:40:38;;;;;;;;;;;;;;;;;;5073367;28;20071;-61
2023/03/31 15:43:04;;;;;;;;;;;;;;;;;;5091600;28;20388;-61
2023/03/31 15:45:30;;;;;;;;;;;;;;;;;;5092138;28;19963;-61
2023/03/31 15:47:56;;;;;;;;;;;;;;;;;;5072803;28;19966;-61
2023/03/31 15:50:22;;;;;;;;;;;;;;;;;;5092055;28;19946;-61
2023/03/31 15:52:48;;;;;;;;;;;;;;;;;;5073712;28;19920;-61
2023/03/31 15:55:14;;;;;;;;;;;;;;;;;;5092200;28;19969;-61
2023/03/31 15:57:40;;;;;;;;;;;;;;;;;;5073701;28;19928;-61
2023/03/31 16:00:06;;;;;;;;;;;;;;;;;;5092045;28;19924;-61
2023/03/31 16:02:32;;;;;;;;;;;;;;;;;;5091926;28;19931;-61
2023/03/31 16:04:58;;;;;;;;;;;;;;;;;;5088189;28;20362;-61
2023/03/31 16:07:25;;;;;;;;;;;;;;;;;;5071505;28;19920;-61
2023/03/31 16:09:51;;;;;;;;;;;;;;;;;;5071200;28;19931;-61
2023/03/31 16:12:17;;;;;;;;;;;;;;;;;;5053421;28;19924;-61
2023/03/31 16:14:43;;;;;;;;;;;;;;;;;;5069734;28;19924;-61
2023/03/31 16:17:09;;;;;;;;;;;;;;;;;;5053184;28;19925;-61
2023/03/31 16:19:35;;;;;;;;;;;;;;;;;;5071314;28;19931;-61
2023/03/31 16:22:02;;;;;;;;;;;;;;;;;;5088232;28;20411;-62
2023/03/31 16:24:28;;;;;;;;;;;;;;;;;;5073636;28;19985;-62
2023/03/31 16:26:54;;;;;;;;;;;;;;;;;;5092097;28;20358;-63
2023/03/31 16:29:20;;;;;;;;;;;;;;;;;;5092081;28;20572;-62
2023/03/31 16:31:46;;;;;;;;;;;;;;;;;;5091947;28;19928;-62
2023/03/31 16:34:12;;;;;;;;;;;;;;;;;;5075960;28;19925;-63
2023/03/31 16:36:38;;;;;;;;;;;;;;;;;;5058055;28;19927;-62